Time;durP1;ratioP1;P1;durP2;ratioP2;P2;SDS_P1;SDS_P2;PMS_P1;PMS_P2;Temp;Humidity;BMP_temperature;BMP_pressure;BME280_temperature;BME280_humidity;BME280_pressure;Samples;Min_cycle;Max_cycle;Signal;HPM_P1;HPM_P2
2022/05/18 00:00:09;;;;;;;8.85;6.03;;;17.30;99.90;;;;;;5027428;28;20128;-65
2022/05/18 00:02:34;;;;;;;5.70;5.13;;;17.30;99.90;;;;;;5031418;28;20057;-63
2022/05/18 00:05:00;;;;;;;8.30;5.57;;;17.20;99.90;;;;;;5030799;28;20478;-65
2022/05/18 00:07:25;;;;;;;8.15;5.82;;;17.20;99.90;;;;;;5031367;28;20128;-64
2022/05/18 00:09:51;;;;;;;7.60;6.03;;;17.10;99.90;;;;;;5032225;28;20065;-64
2022/05/18 00:12:17;;;;;;;8.32;6.35;;;17.10;99.90;;;;;;5028158;28;20041;-64
2022/05/18 00:14:43;;;;;;;7.80;5.50;;;17.10;99.90;;;;;;5030456;28;20071;-64
2022/05/18 00:17:08;;;;;;;7.60;5.97;;;17.00;99.90;;;;;;5030686;28;20438;-65
2022/05/18 00:19:34;;;;;;;7.70;5.57;;;17.00;99.90;;;;;;5033663;28;20205;-64
2022/05/18 00:22:00;;;;;;;7.53;6.10;;;17.00;99.90;;;;;;5031079;28;20409;-64
2022/05/18 00:24:25;;;;;;;7.85;5.95;;;17.00;99.90;;;;;;5031777;28;20137;-65
2022/05/18 00:26:51;;;;;;;8.93;5.95;;;16.90;99.90;;;;;;5029304;28;20060;-64
2022/05/18 00:29:17;;;;;;;10.48;6.53;;;16.90;99.90;;;;;;5026605;28;20042;-65
2022/05/18 00:31:43;;;;;;;9.23;6.32;;;16.90;99.90;;;;;;5026044;28;20061;-66
2022/05/18 00:34:09;;;;;;;9.32;6.25;;;16.80;99.90;;;;;;5028999;28;20052;-64
2022/05/18 00:36:35;;;;;;;9.85;6.40;;;16.80;99.90;;;;;;5028036;28;20052;-63
2022/05/18 00:39:01;;;;;;;10.18;5.78;;;16.80;99.90;;;;;;5029707;28;20053;-63
2022/05/18 00:41:27;;;;;;;10.40;5.95;;;16.70;99.90;;;;;;5029276;28;20065;-63
2022/05/18 00:43:54;;;;;;;10.18;6.40;;;16.70;99.90;;;;;;5029890;28;20478;-64
2022/05/18 00:46:21;;;;;;;6.45;5.63;;;16.70;99.90;;;;;;5014513;28;20057;-63
2022/05/18 00:48:46;;;;;;;6.88;5.78;;;16.70;99.90;;;;;;5025434;28;20046;-64
2022/05/18 00:51:31;;;;;;;9.48;6.22;;;16.70;99.90;;;;;;5028092;28;20064;-64
2022/05/18 00:54:06;;;;;;;6.32;5.72;;;16.60;99.90;;;;;;5018645;28;20061;-65
2022/05/18 00:57:04;;;;;;;7.38;6.05;;;16.60;99.90;;;;;;5029550;28;20124;-64
2022/05/18 00:59:38;;;;;;;6.88;6.00;;;16.60;99.90;;;;;;5022582;28;20122;-64
2022/05/18 01:02:05;;;;;;;7.10;5.70;;;16.60;99.90;;;;;;5028679;28;20053;-63
2022/05/18 01:04:31;;;;;;;7.43;5.63;;;16.50;99.90;;;;;;5031483;28;20084;-64
2022/05/18 01:07:08;;;;;;;8.05;5.80;;;16.50;99.90;;;;;;5026442;28;20103;-66
2022/05/18 01:09:39;;;;;;;8.60;5.60;;;16.50;99.90;;;;;;5036884;28;20108;-65
2022/05/18 01:12:07;;;;;;;6.87;5.50;;;16.50;99.90;;;;;;5034275;28;20067;-64
2022/05/18 01:14:39;;;;;;;7.68;5.60;;;16.40;99.90;;;;;;5034747;28;20060;-63
2022/05/18 01:17:06;;;;;;;8.63;6.00;;;16.40;99.90;;;;;;5034834;28;20122;-64
2022/05/18 01:19:40;;;;;;;7.32;5.10;;;16.40;99.90;;;;;;5030320;28;20053;-63
2022/05/18 01:22:40;;;;;;;9.18;5.72;;;16.40;99.90;;;;;;5033081;28;20076;-63
2022/05/18 01:25:33;;;;;;;8.10;5.40;;;16.40;99.90;;;;;;5032540;28;20072;-64
2022/05/18 01:28:00;;;;;;;8.38;5.70;;;16.40;99.90;;;;;;5020700;28;20053;-63
2022/05/18 01:30:28;;;;;;;7.25;5.47;;;16.30;99.90;;;;;;5034821;28;20092;-64
2022/05/18 01:32:56;;;;;;;8.80;5.45;;;16.30;99.90;;;;;;5033204;28;20085;-63
2022/05/18 01:35:26;;;;;;;7.70;5.22;;;16.30;99.90;;;;;;5035132;28;20088;-64
2022/05/18 01:37:57;;;;;;;7.25;5.47;;;16.30;99.90;;;;;;5033880;28;20038;-63
2022/05/18 01:40:55;;;;;;;6.45;4.97;;;16.30;99.90;;;;;;5031260;28;20103;-63
2022/05/18 01:43:26;;;;;;;6.32;5.25;;;16.30;99.90;;;;;;5024593;28;20054;-63
2022/05/18 01:45:54;;;;;;;6.60;4.85;;;16.20;99.90;;;;;;5034119;28;20124;-64
2022/05/18 01:48:23;;;;;;;5.53;4.80;;;16.20;99.90;;;;;;5033036;28;20053;-64
2022/05/18 01:50:50;;;;;;;7.60;5.05;;;16.20;99.90;;;;;;5034077;28;20053;-64
2022/05/18 01:53:16;;;;;;;7.57;5.40;;;16.20;99.90;;;;;;5034795;28;20116;-64
2022/05/18 01:55:43;;;;;;;7.40;4.97;;;16.20;99.90;;;;;;5035139;28;20053;-64
2022/05/18 01:58:11;;;;;;;6.88;5.05;;;16.10;99.90;;;;;;5034582;28;20046;-65
2022/05/18 02:00:38;;;;;;;7.03;5.05;;;16.20;99.90;;;;;;5028199;28;20053;-64
2022/05/18 02:03:03;;;;;;;9.60;5.75;;;16.10;99.90;;;;;;5034411;28;20049;-62
2022/05/18 02:05:29;;;;;;;6.18;5.18;;;16.20;99.90;;;;;;5033122;28;20413;-64
2022/05/18 02:07:57;;;;;;;7.07;5.35;;;16.10;99.90;;;;;;5033540;28;20054;-64
2022/05/18 02:10:23;;;;;;;5.78;4.93;;;16.10;99.90;;;;;;5034673;28;20053;-65
2022/05/18 02:12:49;;;;;;;9.90;5.57;;;16.10;99.90;;;;;;5033823;28;20127;-63
2022/05/18 02:15:14;;;;;;;7.50;5.40;;;16.10;99.90;;;;;;5036075;28;20091;-63
2022/05/18 02:17:40;;;;;;;8.35;5.65;;;16.10;99.90;;;;;;5033810;28;20049;-64
2022/05/18 02:20:07;;;;;;;9.15;5.93;;;16.00;99.90;;;;;;5027784;28;20406;-64
2022/05/18 02:22:33;;;;;;;7.97;5.20;;;16.00;99.90;;;;;;5046928;28;20103;-65
2022/05/18 02:24:58;;;;;;;6.65;5.95;;;16.00;99.90;;;;;;5034114;28;20046;-64
2022/05/18 02:27:24;;;;;;;7.25;5.93;;;16.00;99.90;;;;;;5034136;28;20122;-63
2022/05/18 02:29:50;;;;;;;6.40;5.75;;;15.90;99.90;;;;;;5033352;28;20195;-63
2022/05/18 02:32:17;;;;;;;8.00;6.30;;;15.90;99.90;;;;;;5030800;28;20049;-65
2022/05/18 02:34:43;;;;;;;8.32;6.00;;;15.90;99.90;;;;;;5032811;28;20122;-64
2022/05/18 02:37:08;;;;;;;8.70;6.40;;;15.90;99.90;;;;;;5031257;28;20049;-64
2022/05/18 02:39:34;;;;;;;8.32;5.95;;;15.80;99.90;;;;;;5030923;28;20042;-63
2022/05/18 02:42:00;;;;;;;6.55;5.78;;;15.80;99.90;;;;;;5034155;28;20123;-64
2022/05/18 02:44:25;;;;;;;8.30;6.40;;;15.70;99.90;;;;;;5031195;28;20458;-63
2022/05/18 02:46:55;;;;;;;8.80;6.65;;;15.70;99.90;;;;;;5032598;28;20132;-63
2022/05/18 02:49:23;;;;;;;9.55;6.55;;;15.70;99.90;;;;;;5030988;28;20383;-62
2022/05/18 02:51:49;;;;;;;8.80;7.00;;;15.70;99.90;;;;;;5030378;28;20049;-66
2022/05/18 02:56:58;;;;;;;10.52;6.45;;;15.60;99.90;;;;;;5033258;28;20049;-63
2022/05/18 02:59:24;;;;;;;10.32;6.82;;;15.60;99.90;;;;;;5031341;28;20053;-63
2022/05/18 03:01:49;;;;;;;6.22;5.63;;;15.50;99.90;;;;;;5029551;28;20057;-63
2022/05/18 03:04:15;;;;;;;7.80;6.70;;;15.40;99.90;;;;;;5032492;28;20506;-63
2022/05/18 03:06:41;;;;;;;9.88;6.65;;;15.50;99.90;;;;;;5030073;28;20406;-64
2022/05/18 03:09:07;;;;;;;9.07;6.80;;;15.40;99.90;;;;;;5032960;28;20061;-65
2022/05/18 03:11:33;;;;;;;6.95;6.13;;;15.30;99.90;;;;;;5028771;28;20063;-64
2022/05/18 03:13:58;;;;;;;9.38;6.32;;;15.30;99.90;;;;;;5030773;28;20061;-65
2022/05/18 03:16:25;;;;;;;10.35;6.63;;;15.30;99.90;;;;;;5032257;28;20144;-64
2022/05/18 03:18:51;;;;;;;7.80;6.47;;;15.20;99.90;;;;;;5031595;28;20053;-63
2022/05/18 03:24:01;;;;;;;9.10;6.88;;;15.10;99.90;;;;;;5031952;28;20482;-65
2022/05/18 03:26:27;;;;;;;8.93;6.97;;;15.20;99.90;;;;;;5031623;28;20053;-64
2022/05/18 03:28:55;;;;;;;10.90;7.65;;;15.10;99.90;;;;;;5031009;28;20085;-64
2022/05/18 03:31:21;;;;;;;10.10;6.95;;;15.00;99.90;;;;;;5033058;28;20116;-65
2022/05/18 03:33:48;;;;;;;8.75;6.68;;;15.00;99.90;;;;;;5030104;28;20053;-64
2022/05/18 03:36:16;;;;;;;7.78;7.03;;;14.90;99.90;;;;;;5030933;28;20168;-64
2022/05/18 03:38:43;;;;;;;8.50;6.63;;;14.90;99.90;;;;;;5030215;28;20050;-63
2022/05/18 03:41:09;;;;;;;10.13;7.40;;;14.80;99.90;;;;;;5032736;28;20122;-64
2022/05/18 03:43:35;;;;;;;8.25;7.15;;;14.80;99.90;;;;;;5028575;28;20129;-64
2022/05/18 03:46:02;;;;;;;9.13;7.18;;;14.70;99.90;;;;;;5033507;28;20053;-64
2022/05/18 03:48:28;;;;;;;7.97;6.35;;;14.70;99.90;;;;;;5031518;28;20136;-63
2022/05/18 03:50:57;;;;;;;7.53;6.82;;;14.70;99.90;;;;;;5033046;28;20057;-65
2022/05/18 03:53:23;;;;;;;9.10;7.03;;;14.70;99.90;;;;;;5030083;28;20049;-64
2022/05/18 03:55:49;;;;;;;9.15;7.13;;;14.70;99.90;;;;;;5032650;28;20049;-66
2022/05/18 03:58:15;;;;;;;10.88;7.43;;;14.60;99.90;;;;;;5033088;28;20088;-65
2022/05/18 04:00:42;;;;;;;8.52;6.97;;;14.60;99.90;;;;;;5029351;28;20156;-65
2022/05/18 04:03:08;;;;;;;8.20;7.05;;;14.60;99.90;;;;;;5029647;28;20053;-63
2022/05/18 04:05:37;;;;;;;9.70;6.82;;;14.60;99.90;;;;;;5025768;28;20053;-66
2022/05/18 04:08:02;;;;;;;10.40;7.50;;;14.60;99.90;;;;;;5030972;28;20046;-64
2022/05/18 04:10:28;;;;;;;10.40;8.18;;;14.50;99.90;;;;;;5028575;28;20072;-63
2022/05/18 04:12:54;;;;;;;10.90;7.28;;;14.60;99.90;;;;;;5031932;28;20050;-63
2022/05/18 04:15:19;;;;;;;10.02;7.85;;;14.60;99.90;;;;;;5030804;28;20503;-64
2022/05/18 04:17:46;;;;;;;9.57;7.72;;;14.60;99.90;;;;;;5031252;28;20073;-64
2022/05/18 04:20:14;;;;;;;7.97;7.18;;;14.60;99.90;;;;;;5022734;28;20054;-64
2022/05/18 04:22:41;;;;;;;8.88;7.53;;;14.60;99.90;;;;;;5029646;28;20441;-65
2022/05/18 04:25:09;;;;;;;9.60;8.02;;;14.60;99.90;;;;;;5025043;28;20058;-63
2022/05/18 04:27:34;;;;;;;10.38;7.30;;;14.60;99.90;;;;;;5030724;28;20053;-64
2022/05/18 04:30:00;;;;;;;11.32;8.40;;;14.70;99.90;;;;;;5031533;28;20351;-63
2022/05/18 04:32:25;;;;;;;11.10;7.95;;;14.70;99.90;;;;;;5029485;28;20147;-64
2022/05/18 04:34:51;;;;;;;9.85;7.95;;;14.70;99.90;;;;;;5031170;28;20573;-65
2022/05/18 04:37:17;;;;;;;10.65;8.55;;;14.70;99.90;;;;;;5030618;28;20064;-64
2022/05/18 04:39:43;;;;;;;10.88;7.93;;;14.80;99.90;;;;;;5030125;28;20055;-65
2022/05/18 04:42:10;;;;;;;9.70;7.80;;;14.80;99.90;;;;;;5027755;28;20045;-66
2022/05/18 04:44:36;;;;;;;10.68;8.45;;;14.80;99.90;;;;;;5031433;28;20095;-64
2022/05/18 04:47:02;;;;;;;9.48;8.40;;;14.90;99.90;;;;;;5027137;28;20153;-65
2022/05/18 04:49:27;;;;;;;11.68;8.13;;;14.90;99.90;;;;;;5032249;28;20224;-65
2022/05/18 04:51:53;;;;;;;10.00;7.60;;;14.90;99.90;;;;;;5031761;28;20053;-64
2022/05/18 04:54:20;;;;;;;11.30;8.70;;;15.00;99.90;;;;;;5030386;28;20107;-67
2022/05/18 04:56:46;;;;;;;12.40;8.52;;;15.00;99.90;;;;;;5031258;28;20049;-66
2022/05/18 04:59:12;;;;;;;11.30;8.63;;;15.10;99.90;;;;;;5029982;28;20048;-64
2022/05/18 05:01:39;;;;;;;14.18;9.55;;;15.10;99.90;;;;;;5027772;28;20053;-64
2022/05/18 05:04:09;;;;;;;12.07;9.45;;;15.20;99.90;;;;;;5027333;28;20041;-65
2022/05/18 05:06:36;;;;;;;12.02;9.02;;;15.20;99.90;;;;;;5030165;28;20632;-64
2022/05/18 05:09:02;;;;;;;12.10;9.50;;;15.20;99.90;;;;;;5031396;28;20438;-65
2022/05/18 05:11:28;;;;;;;11.50;9.52;;;15.30;99.90;;;;;;5031060;28;20072;-67
2022/05/18 05:13:53;;;;;;;10.90;9.13;;;15.40;99.90;;;;;;5031740;28;20066;-66
2022/05/18 05:16:19;;;;;;;13.35;9.70;;;15.40;99.90;;;;;;5026454;28;20053;-65
2022/05/18 05:18:44;;;;;;;9.60;8.60;;;15.50;99.90;;;;;;5030975;28;20057;-65
2022/05/18 05:21:10;;;;;;;13.55;9.45;;;15.60;99.90;;;;;;5031451;28;20057;-64
2022/05/18 05:23:36;;;;;;;12.90;9.00;;;15.60;99.90;;;;;;5029701;28;20120;-67
2022/05/18 05:26:02;;;;;;;10.98;9.88;;;15.70;99.90;;;;;;5031428;28;20100;-65
2022/05/18 05:28:28;;;;;;;10.75;9.68;;;15.80;99.90;;;;;;5031332;28;20057;-65
2022/05/18 05:30:54;;;;;;;14.52;8.45;;;15.90;99.90;;;;;;5031461;28;20133;-64
2022/05/18 05:33:20;;;;;;;12.18;9.77;;;16.20;99.90;;;;;;5031050;28;20053;-65
2022/05/18 05:35:46;;;;;;;12.15;9.60;;;17.20;99.90;;;;;;5031282;28;20108;-64
2022/05/18 05:38:12;;;;;;;11.07;8.75;;;18.60;99.90;;;;;;5030956;28;20057;-66
2022/05/18 05:40:39;;;;;;;14.45;9.95;;;19.80;99.90;;;;;;5032653;28;20426;-66
2022/05/18 05:43:06;;;;;;;10.25;9.25;;;20.70;99.90;;;;;;5031032;28;20107;-64
2022/05/18 05:45:32;;;;;;;11.02;8.77;;;21.40;99.90;;;;;;5031363;28;20183;-64
2022/05/18 05:47:58;;;;;;;8.95;7.90;;;22.20;99.90;;;;;;5029605;28;20140;-66
2022/05/18 05:50:27;;;;;;;11.02;8.60;;;22.80;99.90;;;;;;5032428;28;20096;-65
2022/05/18 05:52:53;;;;;;;8.88;7.97;;;23.40;99.90;;;;;;5033572;28;20509;-64
2022/05/18 05:55:19;;;;;;;8.77;7.90;;;23.80;99.90;;;;;;5036512;28;20057;-63
2022/05/18 05:57:44;;;;;;;9.80;8.23;;;24.10;99.90;;;;;;5035709;28;20421;-64
2022/05/18 06:00:11;;;;;;;10.93;7.93;;;24.40;99.90;;;;;;5036081;28;20486;-64
2022/05/18 06:02:37;;;;;;;9.98;7.55;;;24.50;99.90;;;;;;5032696;28;20056;-64
2022/05/18 06:05:03;;;;;;;9.05;7.97;;;24.90;99.90;;;;;;5033863;28;20151;-64
2022/05/18 06:07:31;;;;;;;10.63;7.95;;;24.90;99.90;;;;;;5033336;28;20088;-66
2022/05/18 06:09:57;;;;;;;9.30;7.82;;;24.90;99.90;;;;;;5034013;28;20061;-64
2022/05/18 06:12:28;;;;;;;8.15;7.35;;;24.90;99.90;;;;;;5034509;28;20128;-64
2022/05/18 06:14:53;;;;;;;9.70;7.13;;;24.60;99.90;;;;;;5033979;28;20045;-65
2022/05/18 06:17:20;;;;;;;9.05;7.60;;;24.50;99.90;;;;;;5031720;28;20057;-63
2022/05/18 06:19:45;;;;;;;8.18;7.47;;;24.50;99.90;;;;;;5034608;28;20366;-66
2022/05/18 06:22:11;;;;;;;9.45;7.28;;;24.60;99.90;;;;;;5033383;28;20049;-63
2022/05/18 06:24:37;;;;;;;10.02;7.50;;;24.50;99.90;;;;;;5031109;28;20427;-65
2022/05/18 06:27:03;;;;;;;11.32;7.88;;;23.80;99.90;;;;;;5033632;28;20095;-64
2022/05/18 06:29:29;;;;;;;8.80;8.00;;;23.10;99.90;;;;;;5034559;28;20129;-64
2022/05/18 06:31:54;;;;;;;9.30;7.72;;;22.50;99.90;;;;;;5032833;28;20212;-63
2022/05/18 06:34:21;;;;;;;10.98;7.55;;;22.30;99.90;;;;;;5034395;28;20064;-65
2022/05/18 06:36:49;;;;;;;10.30;8.15;;;21.70;99.90;;;;;;5034957;28;20119;-64
2022/05/18 06:39:16;;;;;;;9.75;8.77;;;21.50;99.90;;;;;;5034112;28;20057;-66
2022/05/18 06:41:41;;;;;;;8.52;7.72;;;21.30;99.90;;;;;;5033659;28;20347;-65
2022/05/18 06:44:07;;;;;;;9.65;8.48;;;21.20;99.90;;;;;;5033851;28;20046;-64
2022/05/18 06:46:36;;;;;;;9.90;8.13;;;21.20;99.90;;;;;;5031612;28;20049;-64
2022/05/18 06:49:03;;;;;;;8.57;7.68;;;21.20;99.90;;;;;;5034964;28;20068;-64
2022/05/18 06:51:31;;;;;;;9.18;8.38;;;21.30;99.90;;;;;;5033525;28;20053;-64
2022/05/18 06:53:58;;;;;;;9.05;8.10;;;21.30;99.90;;;;;;5033346;28;20049;-63
2022/05/18 06:56:27;;;;;;;9.05;8.25;;;21.40;99.90;;;;;;5031982;28;20049;-64
2022/05/18 06:58:53;;;;;;;11.15;8.82;;;21.50;99.90;;;;;;5035195;28;20057;-64
2022/05/18 07:01:19;;;;;;;10.85;8.73;;;21.60;99.90;;;;;;5033072;28;20121;-63
2022/05/18 07:03:45;;;;;;;9.63;8.38;;;21.60;99.90;;;;;;5032202;28;20136;-64
2022/05/18 07:06:12;;;;;;;11.05;8.50;;;21.70;99.90;;;;;;5034730;28;20046;-64
2022/05/18 07:08:39;;;;;;;12.63;8.40;;;21.70;99.90;;;;;;5033281;28;20045;-64
2022/05/18 07:11:05;;;;;;;9.05;8.20;;;21.80;99.90;;;;;;5034310;28;20053;-65
2022/05/18 07:13:35;;;;;;;8.77;7.88;;;22.10;99.90;;;;;;5033591;28;20053;-66
2022/05/18 07:16:02;;;;;;;10.35;8.20;;;22.20;99.90;;;;;;5032090;28;20160;-65
2022/05/18 07:18:29;;;;;;;10.07;7.80;;;22.40;99.90;;;;;;5028000;28;20057;-63
2022/05/18 07:20:56;;;;;;;8.65;7.32;;;22.40;99.90;;;;;;5034821;28;20057;-63
2022/05/18 07:23:23;;;;;;;8.98;8.00;;;22.50;99.90;;;;;;5032979;28;20267;-66
2022/05/18 07:25:53;;;;;;;11.55;8.55;;;22.60;99.90;;;;;;5033298;28;20045;-65
2022/05/18 07:28:19;;;;;;;9.07;8.10;;;22.80;99.90;;;;;;5033177;28;20053;-64
2022/05/18 07:30:45;;;;;;;8.48;7.68;;;22.90;99.90;;;;;;5032376;28;20358;-63
2022/05/18 07:33:11;;;;;;;10.80;8.07;;;23.00;99.90;;;;;;5032764;28;20065;-63
2022/05/18 07:35:37;;;;;;;9.75;8.27;;;23.10;99.90;;;;;;5033559;28;20077;-65
2022/05/18 07:38:03;;;;;;;8.50;7.63;;;23.20;99.90;;;;;;5034312;28;20154;-65
2022/05/18 07:40:30;;;;;;;9.38;7.30;;;23.30;99.90;;;;;;5032704;28;20140;-65
2022/05/18 07:42:56;;;;;;;12.18;7.93;;;23.50;99.90;;;;;;5033724;28;20517;-63
2022/05/18 07:45:25;;;;;;;10.75;7.53;;;23.60;99.90;;;;;;5032428;28;20053;-63
2022/05/18 07:47:54;;;;;;;11.32;7.63;;;23.70;99.90;;;;;;5033169;28;20080;-66
2022/05/18 07:50:24;;;;;;;9.45;7.53;;;23.90;99.90;;;;;;5032621;28;20053;-65
2022/05/18 07:52:51;;;;;;;7.80;6.43;;;24.00;99.90;;;;;;5032334;28;20049;-65
2022/05/18 07:55:17;;;;;;;7.40;6.55;;;24.00;99.90;;;;;;5034127;28;20046;-64
2022/05/18 07:57:43;;;;;;;8.65;7.00;;;24.10;99.90;;;;;;5032515;28;20124;-64
2022/05/18 08:00:09;;;;;;;7.38;6.53;;;24.30;99.90;;;;;;5033427;28;20129;-64
2022/05/18 08:02:35;;;;;;;8.43;6.57;;;24.30;99.90;;;;;;5032803;28;20057;-63
2022/05/18 08:05:01;;;;;;;8.30;7.20;;;24.50;99.90;;;;;;5031922;28;20057;-64
2022/05/18 08:07:27;;;;;;;7.88;6.70;;;24.60;99.90;;;;;;5031802;28;20061;-64
2022/05/18 08:15:22;;;;;;;9.02;6.53;;;24.70;99.90;;;;;;5013599;28;20061;-62
2022/05/18 08:17:48;;;;;;;10.13;6.75;;;24.80;99.90;;;;;;5012923;28;20464;-65
2022/05/18 08:20:16;;;;;;;7.05;6.35;;;24.90;99.90;;;;;;5028561;28;20046;-64
2022/05/18 08:22:41;;;;;;;7.40;5.50;;;24.90;99.90;;;;;;5031340;28;20107;-63
2022/05/18 08:25:11;;;;;;;9.30;6.18;;;25.00;99.90;;;;;;5033401;28;20046;-63
2022/05/18 08:27:45;;;;;;;7.95;6.20;;;25.10;99.90;;;;;;5032949;28;20045;-62
2022/05/18 08:30:13;;;;;;;8.02;6.05;;;25.20;99.90;;;;;;5033275;28;20118;-64
2022/05/18 08:32:38;;;;;;;8.75;6.60;;;25.30;99.90;;;;;;5032385;28;20111;-63
2022/05/18 08:35:05;;;;;;;9.05;6.05;;;25.40;99.90;;;;;;5030827;28;20075;-64
2022/05/18 08:37:38;;;;;;;9.10;6.60;;;25.40;99.90;;;;;;5032321;28;20505;-64
2022/05/18 08:40:05;;;;;;;7.05;6.22;;;25.40;99.90;;;;;;5032561;28;20037;-63
2022/05/18 08:42:30;;;;;;;8.95;6.07;;;25.40;99.90;;;;;;5030776;28;20474;-63
2022/05/18 08:44:56;;;;;;;9.80;6.10;;;25.50;99.90;;;;;;5031475;28;20119;-64
2022/05/18 08:47:42;;;;;;;7.47;5.90;;;25.60;99.90;;;;;;5030934;28;20132;-63
2022/05/18 08:50:20;;;;;;;7.55;5.38;;;25.70;99.90;;;;;;5031806;28;20064;-63
2022/05/18 08:53:16;;;;;;;6.20;5.40;;;25.80;99.90;;;;;;5031646;28;20053;-63
2022/05/18 08:55:50;;;;;;;8.02;5.93;;;25.80;99.90;;;;;;5032824;28;20100;-64
2022/05/18 08:58:29;;;;;;;8.07;5.68;;;25.90;99.90;;;;;;5031349;28;20056;-65
2022/05/18 09:01:02;;;;;;;8.48;6.68;;;25.80;99.90;;;;;;5028679;28;20133;-64
2022/05/18 09:03:36;;;;;;;12.43;6.75;;;25.90;99.90;;;;;;5032202;28;20053;-63
2022/05/18 09:06:18;;;;;;;8.85;7.55;;;25.90;99.90;;;;;;5018948;28;20081;-64
2022/05/18 09:10:12;;;;;;;9.48;5.50;;;25.90;99.90;;;;;;5012937;28;20081;-63
2022/05/18 09:11:35;;;;;;;;;;;25.90;99.90;;;;;;5018283;28;20107;-63
2022/05/18 09:14:01;;;;;;;8.30;6.38;;;26.50;99.90;;;;;;5030624;28;19921;-63
2022/05/18 09:16:37;;;;;;;7.97;6.45;;;25.90;99.90;;;;;;5032195;28;20370;-63
2022/05/18 09:19:44;;;;;;;6.25;5.65;;;25.90;99.90;;;;;;5032147;28;20045;-63
2022/05/18 09:22:21;;;;;;;8.38;6.82;;;26.10;99.90;;;;;;5031997;28;20115;-63
2022/05/18 09:25:10;;;;;;;7.72;5.88;;;26.30;99.90;;;;;;5030031;28;20045;-64
2022/05/18 09:27:56;;;;;;;6.55;5.80;;;26.40;99.90;;;;;;5032683;28;20068;-63
2022/05/18 09:30:28;;;;;;;8.25;6.57;;;26.50;99.90;;;;;;5018538;28;20061;-64
2022/05/18 09:33:31;;;;;;;8.70;7.10;;;26.50;99.40;;;;;;5035035;28;20123;-64
2022/05/18 09:36:28;;;;;;;8.13;7.28;;;26.50;99.90;;;;;;5017829;28;20064;-63
2022/05/18 09:39:17;;;;;;;7.40;6.55;;;26.70;99.90;;;;;;5034903;28;20053;-63
2022/05/18 09:41:54;;;;;;;9.00;7.72;;;26.70;99.90;;;;;;5035714;28;20053;-66
2022/05/18 09:44:38;;;;;;;8.27;7.45;;;26.70;99.60;;;;;;5035533;28;20049;-65
2022/05/18 09:47:05;;;;;;;7.68;6.85;;;26.80;99.90;;;;;;5033179;28;20060;-63
2022/05/18 09:49:34;;;;;;;7.68;6.10;;;26.80;99.90;;;;;;5035982;28;20378;-65
2022/05/18 09:52:03;;;;;;;7.18;6.45;;;26.90;99.90;;;;;;5035768;28;20374;-64
2022/05/18 09:54:34;;;;;;;7.35;6.38;;;27.10;99.90;;;;;;5036060;28;20049;-64
2022/05/18 09:57:08;;;;;;;10.75;6.20;;;27.20;99.60;;;;;;5018002;28;20060;-63
2022/05/18 09:59:42;;;;;;;6.82;5.63;;;27.20;99.90;;;;;;5034437;28;20053;-64
2022/05/18 10:07:51;;;;;;;7.03;6.40;;;27.40;93.70;;;;;;5018505;28;20049;-65
2022/05/18 10:10:19;;;;;;;7.28;6.57;;;27.40;94.90;;;;;;5035103;28;20358;-64
2022/05/18 10:13:06;;;;;;;10.07;7.22;;;27.40;88.60;;;;;;5035248;28;20053;-64
2022/05/18 10:15:45;;;;;;;9.73;7.70;;;27.30;93.30;;;;;;5018697;28;20517;-64
2022/05/18 10:18:18;;;;;;;8.38;7.13;;;27.30;90.90;;;;;;5034802;28;20080;-64
2022/05/18 10:21:01;;;;;;;8.82;7.05;;;27.40;92.80;;;;;;5032418;28;20375;-65
2022/05/18 10:23:33;;;;;;;8.70;7.25;;;27.50;92.40;;;;;;5032753;28;20383;-64
2022/05/18 10:25:59;;;;;;;;;;;27.40;92.70;;;;;;5035265;28;20053;-64
2022/05/18 10:28:27;;;;;;;7.85;6.85;;;27.50;91.30;;;;;;5032198;28;19925;-65
2022/05/18 10:31:05;;;;;;;9.77;7.68;;;27.50;95.50;;;;;;5035267;28;20060;-64
2022/05/18 10:33:38;;;;;;;10.77;8.05;;;27.50;95.40;;;;;;5033251;28;20057;-64
2022/05/18 10:36:15;;;;;;;8.32;6.95;;;27.50;95.70;;;;;;5031997;28;20489;-63
2022/05/18 10:38:54;;;;;;;11.80;8.50;;;27.50;99.20;;;;;;5033506;28;20148;-64
2022/05/18 10:41:26;;;;;;;12.95;8.55;;;27.60;98.30;;;;;;5032374;28;20425;-65
2022/05/18 10:43:54;;;;;;;10.45;8.52;;;27.60;92.50;;;;;;5033953;28;20124;-65
2022/05/18 10:46:40;;;;;;;8.75;7.85;;;27.60;98.60;;;;;;5034094;28;20107;-64
2022/05/18 10:49:19;;;;;;;9.73;7.35;;;27.70;88.70;;;;;;5032029;28;20092;-64
2022/05/18 10:51:45;;;;;;;9.18;8.27;;;27.70;91.20;;;;;;5034044;28;20057;-64
2022/05/18 10:54:17;;;;;;;9.95;7.35;;;27.70;87.90;;;;;;5035029;28;20072;-64
2022/05/18 10:56:44;;;;;;;8.60;6.43;;;27.70;90.70;;;;;;5033004;28;20049;-64
2022/05/18 10:59:51;;;;;;;9.02;6.38;;;27.70;84.80;;;;;;5034808;28;20437;-64
2022/05/18 11:02:47;;;;;;;8.57;5.20;;;27.60;71.20;;;;;;5032804;28;20058;-66
2022/05/18 11:05:31;;;;;;;5.40;4.82;;;27.50;68.90;;;;;;5034752;28;20124;-64
2022/05/18 11:07:57;;;;;;;6.05;4.40;;;27.60;73.00;;;;;;5034376;28;20474;-66
2022/05/18 11:10:25;;;;;;;7.63;4.57;;;27.60;71.90;;;;;;5034733;28;20081;-64
2022/05/18 11:13:15;;;;;;;9.25;4.30;;;27.60;69.90;;;;;;5032469;28;20053;-64
2022/05/18 11:15:47;;;;;;;9.10;5.97;;;27.60;62.30;;;;;;5032959;28;20111;-66
2022/05/18 11:18:48;;;;;;;7.75;7.05;;;27.70;65.60;;;;;;5032962;28;20120;-64
2022/05/18 11:21:36;;;;;;;7.35;6.18;;;27.70;65.10;;;;;;5033671;28;20109;-65
2022/05/18 11:24:34;;;;;;;8.82;6.53;;;27.60;68.60;;;;;;5029905;28;20054;-64
2022/05/18 11:27:20;;;;;;;12.30;9.02;;;27.60;69.80;;;;;;5033676;28;20072;-66
2022/05/18 11:29:53;;;;;;;14.90;9.18;;;27.60;70.50;;;;;;5032079;28;20077;-64
2022/05/18 11:32:19;;;;;;;11.20;8.15;;;27.60;74.30;;;;;;5032958;28;20057;-64
2022/05/18 11:35:02;;;;;;;9.50;8.30;;;27.70;79.30;;;;;;5033036;28;20049;-65
2022/05/18 11:37:56;;;;;;;12.35;8.75;;;27.70;76.80;;;;;;5029891;28;20061;-64
2022/05/18 11:40:32;;;;;;;10.63;8.55;;;27.80;71.90;;;;;;5032786;28;20057;-65
2022/05/18 11:43:25;;;;;;;9.02;8.02;;;27.90;80.60;;;;;;5033690;28;20409;-65
2022/05/18 11:46:05;;;;;;;8.95;7.22;;;28.00;74.90;;;;;;5033527;28;20405;-64
2022/05/18 11:48:55;;;;;;;10.57;8.68;;;28.10;75.00;;;;;;5033784;28;20057;-65
2022/05/18 11:51:42;;;;;;;10.70;9.38;;;28.20;73.50;;;;;;5032607;28;20084;-65
2022/05/18 11:54:39;;;;;;;9.13;8.15;;;28.30;70.90;;;;;;5029339;28;20081;-65
2022/05/18 11:57:26;;;;;;;10.13;8.38;;;28.40;83.10;;;;;;5032836;28;20471;-65
2022/05/18 12:00:08;;;;;;;8.80;7.38;;;28.50;90.10;;;;;;5033975;28;20124;-65
2022/05/18 12:03:01;;;;;;;9.95;8.05;;;28.60;78.50;;;;;;5033252;28;20148;-64
2022/05/18 12:05:42;;;;;;;8.63;7.13;;;28.70;69.50;;;;;;5032851;28;20049;-65
2022/05/18 12:08:27;;;;;;;10.80;8.13;;;28.50;70.10;;;;;;5031941;28;20064;-64
2022/05/18 12:11:13;;;;;;;7.82;6.95;;;28.40;70.10;;;;;;5033206;28;20144;-64
2022/05/18 12:14:08;;;;;;;9.13;6.80;;;28.40;72.30;;;;;;5033511;28;20135;-65
2022/05/18 12:17:03;;;;;;;8.25;7.45;;;28.40;79.70;;;;;;5032245;28;20053;-64
2022/05/18 12:19:58;;;;;;;8.93;8.02;;;28.40;74.50;;;;;;5032590;28;20049;-64
2022/05/18 12:22:30;;;;;;;8.18;6.78;;;28.30;75.90;;;;;;5032454;28;20045;-66
2022/05/18 12:24:57;;;;;;;6.68;6.00;;;28.20;77.10;;;;;;5032956;28;20077;-66
2022/05/18 12:27:25;;;;;;;9.10;5.93;;;28.20;77.50;;;;;;5031973;28;20068;-64
2022/05/18 12:29:53;;;;;;;9.40;7.82;;;28.20;81.80;;;;;;5032284;28;20194;-65
2022/05/18 12:32:20;;;;;;;9.38;7.45;;;28.40;88.60;;;;;;5031792;28;20122;-65
2022/05/18 12:35:15;;;;;;;7.78;6.38;;;28.30;84.10;;;;;;5032572;28;20060;-65
2022/05/18 12:38:07;;;;;;;6.63;5.93;;;28.20;85.30;;;;;;5031846;28;20107;-65
2022/05/18 12:41:00;;;;;;;9.15;6.47;;;28.00;86.10;;;;;;5031430;28;20057;-65
2022/05/18 12:43:44;;;;;;;10.48;6.70;;;27.80;88.10;;;;;;5030586;28;20084;-64
2022/05/18 12:46:16;;;;;;;9.25;7.80;;;27.70;89.30;;;;;;5031798;28;20061;-64
2022/05/18 12:49:00;;;;;;;;;;;27.60;90.90;;;;;;5032624;28;20091;-64
2022/05/18 12:51:31;;;;;;;7.70;6.70;;;27.50;90.90;;;;;;5029378;28;20000;-65
2022/05/18 12:54:11;;;;;;;9.88;7.70;;;27.50;92.30;;;;;;5031461;28;20053;-64
2022/05/18 12:56:36;;;;;;;10.20;9.05;;;27.50;95.20;;;;;;5029996;28;20534;-64
2022/05/18 12:59:11;;;;;;;8.73;7.70;;;27.60;91.40;;;;;;5030230;28;20168;-64
2022/05/18 13:01:42;;;;;;;9.00;7.25;;;27.60;95.90;;;;;;5026936;28;20045;-64
2022/05/18 13:04:10;;;;;;;11.07;7.43;;;27.70;95.20;;;;;;5031434;28;20065;-64
2022/05/18 13:06:36;;;;;;;7.95;7.10;;;27.70;96.10;;;;;;5030331;28;20057;-64
2022/05/18 13:09:23;;;;;;;10.20;7.47;;;27.80;95.40;;;;;;5030407;28;20375;-65
2022/05/18 13:11:58;;;;;;;13.15;8.50;;;27.90;94.50;;;;;;5030279;28;20060;-64
2022/05/18 13:14:25;;;;;;;11.77;10.50;;;27.80;93.40;;;;;;5030276;28;20045;-65
2022/05/18 13:16:57;;;;;;;11.55;10.15;;;27.70;91.60;;;;;;5029890;28;20112;-64
2022/05/18 13:19:32;;;;;;;12.32;10.40;;;27.60;93.70;;;;;;5030450;28;20062;-65
2022/05/18 13:22:24;;;;;;;11.13;9.98;;;27.80;95.10;;;;;;5030249;28;20399;-64